Nezperce, ID

4:02 PM PDT on March 31, 2015 (GMT -0700)
Highland Schools | | Change Station
CLOSE
Current Station
Personal Weather Station
Location: Craigmont, ID
Elevation: 3783 ft
Nearby Weather Stations

Elev 3783 ft 46.24 °N, 116.47 °W | Updated 3 seconds ago

Overcast
Overcast
44.4 °F
Feels Like 37 °F
N
17.0
Wind Variable Wind from WNW
Gusts 17.0 mph

Today
High -- | Low -- °F
--% Chance of Precip.
Yesterday
High -- | Low -- °F
Precip. -- in
6:26 AM 7:12 PM
Waxing Gibbous, 89% visible
Pressure 30.00 in
Visibility 10.0 miles
Clouds Mostly Cloudy 5000 ft
Overcast 6500 ft
Windchill 37 °F
Dew Point 33 °F
Humidity 64%
Rainfall 0.02 in
Snow Depth Not available.
UV 1 out of 12
Pollen 9.20 out of 12
Air Quality Not available.
Flu Activity Not available.
METAR KGIC 312255Z AUTO 20004KT 10SM BKN050 OVC065 07/02 A3000 RMK AO1 P0004 T00660016

More Conditions Fewer Conditions

Pressure 30.00 in
Visibility 10.0 miles
Clouds Mostly Cloudy 5000 ft
Overcast 6500 ft
Windchill 37 °F
Dew Point 33 °F
Humidity 64%
Rainfall 0.02 in
Snow Depth Not available.
UV 1 out of 12
Pollen 9.20 out of 12
Air Quality Not available.
Flu Activity Not available.
METAR KGIC 312255Z AUTO 20004KT 10SM BKN050 OVC065 07/02 A3000 RMK AO1 P0004 T00660016

More Conditions Fewer Conditions

10-Day Weather Forecast

Almanac

Astronomy

Mar. 31, 2015 Rise Set
Actual Time
Civil Twilight
Nautical Twilight
Astronomical Twilight
Moon
Length of Visible Light
Length of Day
Tomorrow will be .
, % of the Moon is Illuminated

Today's Extremes

State Highs State Lows

Community

WunderPhotos

Upload Photos

1,809,870 photos uploaded!

WunderBlogs® & News

Nearby

Air Quality

  Air Quality AQ Index Pollutant
Not available.

Snow Depth

Station Depth Elevation

Earthquake Activity

City Distance Mag. Time & Date
Minimum magnitude displayed is 2.5.

Coastal Water Temperatures

Place Temperature

Stations

Nearby Weather Stations

Station Location Temp. Windchill Dew Point Humidity Wind Precip. Elev Updated Type